createdAt,value
2022-09-07T00:01:07.409Z,19.90
2022-09-07T00:03:35.670Z,20.00
2022-09-07T00:06:09.156Z,20.00
2022-09-07T00:08:37.736Z,20.00
2022-09-07T00:11:10.410Z,20.00
2022-09-07T00:13:39.851Z,19.70
2022-09-07T00:16:10.808Z,19.20
2022-09-07T00:18:45.612Z,18.80
2022-09-07T00:21:16.735Z,18.60
2022-09-07T00:23:45.085Z,18.60
2022-09-07T00:26:20.465Z,18.40
2022-09-07T00:28:48.706Z,18.40
2022-09-07T00:31:22.266Z,18.40
2022-09-07T00:33:51.484Z,18.20
2022-09-07T00:36:20.995Z,18.30
2022-09-07T00:38:57.328Z,18.20
2022-09-07T00:41:25.039Z,18.20
2022-09-07T00:43:55.249Z,18.30
2022-09-07T00:46:34.472Z,18.30
2022-09-07T00:49:16.261Z,18.30
2022-09-07T00:51:54.239Z,18.30
2022-09-07T00:54:36.821Z,18.50
2022-09-07T00:57:05.068Z,18.40
2022-09-07T00:59:42.484Z,18.60
2022-09-07T01:02:12.288Z,18.60
2022-09-07T01:04:40.707Z,18.50
2022-09-07T01:07:08.957Z,18.50
2022-09-07T01:09:37.463Z,18.50
2022-09-07T01:12:05.663Z,18.50
2022-09-07T01:14:37.612Z,18.50
2022-09-07T01:17:21.404Z,18.50
2022-09-07T01:20:13.179Z,18.50
2022-09-07T01:23:26.421Z,18.50
2022-09-07T01:26:06.173Z,18.50
2022-09-07T01:28:41.077Z,18.50
2022-09-07T01:31:18.755Z,18.50
2022-09-07T01:33:56.601Z,18.60
2022-09-07T01:36:30.907Z,18.60
2022-09-07T01:39:06.235Z,18.60
2022-09-07T01:41:53.023Z,18.70
2022-09-07T01:45:03.383Z,18.70
2022-09-07T01:47:56.992Z,18.60
2022-09-07T01:50:40.856Z,18.70
2022-09-07T01:53:22.083Z,18.60
2022-09-07T01:56:27.757Z,18.60
2022-09-07T01:59:16.210Z,18.50
2022-09-07T02:01:56.307Z,18.50
2022-09-07T02:04:31.907Z,18.60
2022-09-07T02:07:17.420Z,18.50
2022-09-07T02:10:09.432Z,18.60
2022-09-07T02:13:11.355Z,18.60
2022-09-07T02:15:51.783Z,18.60
2022-09-07T02:18:21.270Z,18.70
2022-09-07T02:20:54.468Z,18.70
2022-09-07T02:23:36.558Z,18.70
2022-09-07T02:26:10.505Z,18.60
2022-09-07T02:28:39.228Z,18.70
2022-09-07T02:33:52.389Z,18.80
2022-09-07T02:36:24.343Z,18.80
2022-09-07T02:38:52.890Z,18.80
2022-09-07T02:41:34.715Z,18.80
2022-09-07T02:44:07.151Z,18.80
2022-09-07T02:50:00.289Z,18.80
2022-09-07T02:52:46.333Z,18.70
2022-09-07T02:56:19.411Z,18.60
2022-09-07T02:59:07.821Z,18.60
2022-09-07T03:02:18.456Z,18.70
2022-09-07T03:05:04.710Z,18.70
2022-09-07T03:08:17.839Z,18.70
2022-09-07T03:11:03.062Z,18.60
2022-09-07T03:13:37.993Z,18.60
2022-09-07T03:16:05.976Z,18.50
2022-09-07T03:18:33.709Z,18.50
2022-09-07T03:21:01.372Z,18.50
2022-09-07T03:23:29.060Z,18.50
2022-09-07T03:25:56.750Z,18.50
2022-09-07T03:28:24.608Z,18.50
2022-09-07T03:31:03.098Z,18.30
2022-09-07T03:33:30.861Z,18.40
2022-09-07T03:36:02.422Z,18.40
2022-09-07T03:38:31.052Z,18.40
2022-09-07T03:41:03.563Z,18.30
2022-09-07T03:43:32.033Z,18.40
2022-09-07T03:46:02.155Z,18.30
2022-09-07T03:48:34.758Z,18.20
2022-09-07T03:51:05.098Z,18.20
2022-09-07T03:53:35.190Z,18.20
2022-09-07T03:56:18.236Z,18.10
2022-09-07T03:58:47.757Z,18.10
2022-09-07T04:01:18.031Z,18.10
2022-09-07T04:03:47.062Z,18.10
2022-09-07T04:06:50.387Z,18.10
2022-09-07T04:09:28.671Z,18.20
2022-09-07T04:11:56.440Z,18.20
2022-09-07T04:14:24.143Z,18.20
2022-09-07T04:16:51.921Z,18.30
2022-09-07T04:19:19.648Z,18.30
2022-09-07T04:21:47.537Z,18.30
2022-09-07T04:24:16.445Z,18.20
2022-09-07T04:26:44.978Z,18.20
2022-09-07T04:29:13.346Z,18.20
2022-09-07T04:31:41.165Z,18.20
2022-09-07T04:34:15.046Z,18.20
2022-09-07T04:36:42.734Z,18.20
2022-09-07T04:39:12.099Z,18.10
2022-09-07T04:41:40.744Z,18.10
2022-09-07T04:44:13.633Z,18.00
2022-09-07T04:46:43.874Z,18.00
2022-09-07T04:49:12.294Z,18.00
2022-09-07T04:52:02.617Z,18.10
2022-09-07T04:54:35.729Z,18.10
2022-09-07T04:57:03.441Z,18.10
2022-09-07T04:59:31.124Z,18.10
2022-09-07T05:01:59.425Z,18.10
2022-09-07T05:04:40.059Z,18.10
2022-09-07T05:07:10.556Z,18.10
2022-09-07T05:09:38.292Z,18.20
2022-09-07T05:12:08.480Z,18.20
2022-09-07T05:14:36.189Z,18.20
2022-09-07T05:17:04.530Z,18.30
2022-09-07T05:19:32.191Z,18.30
2022-09-07T05:21:59.890Z,18.30
2022-09-07T05:24:28.252Z,18.40
2022-09-07T05:26:56.477Z,18.40
2022-09-07T05:30:00.922Z,18.50
2022-09-07T05:32:28.659Z,18.60
2022-09-07T05:34:56.395Z,18.60
2022-09-07T05:37:24.184Z,18.60
2022-09-07T05:40:13.876Z,18.70
2022-09-07T05:42:41.882Z,18.80
2022-09-07T05:45:10.982Z,18.90
2022-09-07T05:47:39.340Z,19.00
2022-09-07T05:50:08.984Z,19.10
2022-09-07T05:52:42.443Z,19.20
2022-09-07T05:55:28.765Z,19.50
2022-09-07T05:57:57.870Z,19.90
2022-09-07T06:00:25.698Z,20.10
2022-09-07T06:02:53.731Z,20.10
2022-09-07T06:05:21.499Z,20.10
2022-09-07T06:07:49.239Z,20.10
2022-09-07T06:13:04.910Z,20.20
2022-09-07T06:18:38.481Z,20.20
2022-09-07T06:21:09.009Z,20.20
2022-09-07T06:23:38.455Z,20.20
2022-09-07T06:26:06.679Z,20.30
2022-09-07T06:28:39.804Z,20.30
2022-09-07T06:31:09.701Z,20.30
2022-09-07T06:33:37.680Z,20.20
2022-09-07T06:36:07.960Z,20.10
2022-09-07T06:38:37.614Z,20.20
2022-09-07T06:43:55.049Z,20.20
2022-09-07T06:49:11.841Z,20.30
2022-09-07T06:51:39.543Z,20.40
2022-09-07T06:56:55.511Z,20.60
2022-09-07T06:59:23.221Z,20.70
2022-09-07T07:01:50.847Z,20.80
2022-09-07T07:04:18.602Z,20.90
2022-09-07T07:06:46.447Z,21.00
2022-09-07T07:09:14.523Z,21.30
2022-09-07T07:11:44.662Z,21.60
2022-09-07T07:14:16.385Z,21.90
2022-09-07T07:16:44.634Z,22.10
2022-09-07T07:19:12.345Z,22.20
2022-09-07T07:22:03.403Z,22.40
2022-09-07T07:24:27.602Z,22.50
2022-09-07T07:26:55.735Z,22.50
2022-09-07T07:29:25.141Z,22.60
2022-09-07T07:31:55.919Z,22.80
2022-09-07T07:34:23.628Z,22.90
2022-09-07T07:36:51.324Z,23.10
2022-09-07T07:42:09.830Z,23.40
2022-09-07T07:44:42.981Z,23.50
2022-09-07T07:47:10.624Z,23.50
2022-09-07T07:49:38.373Z,23.60
2022-09-07T07:55:42.996Z,23.40
2022-09-07T07:57:47.338Z,23.50
2022-09-07T08:00:50.712Z,23.70
2022-09-07T08:03:15.658Z,23.80
2022-09-07T08:05:43.345Z,23.80
2022-09-07T08:08:15.405Z,23.50
2022-09-07T08:10:54.931Z,23.10
2022-09-07T08:13:22.729Z,22.90
2022-09-07T08:15:50.664Z,22.90
2022-09-07T08:18:22.486Z,22.90
2022-09-07T08:21:18.167Z,22.80
2022-09-07T08:23:50.000Z,22.80
2022-09-07T08:26:30.087Z,22.80
2022-09-07T08:28:58.162Z,22.80
2022-09-07T08:31:25.801Z,23.00
2022-09-07T08:33:53.369Z,23.30
2022-09-07T08:36:21.514Z,23.40
2022-09-07T08:38:49.220Z,23.60
2022-09-07T08:41:22.643Z,23.70
2022-09-07T08:43:57.925Z,23.90
2022-09-07T08:46:38.693Z,24.20
2022-09-07T08:49:16.426Z,24.30
2022-09-07T08:52:09.348Z,24.60
2022-09-07T08:54:43.447Z,24.80
2022-09-07T08:57:27.770Z,24.90
2022-09-07T09:00:04.022Z,25.00
2022-09-07T09:02:35.416Z,25.10
2022-09-07T09:05:27.792Z,25.10
2022-09-07T09:08:26.053Z,25.00
2022-09-07T09:10:59.412Z,25.00
2022-09-07T09:13:36.429Z,25.00
2022-09-07T09:16:22.859Z,25.10
2022-09-07T09:19:40.279Z,25.10
2022-09-07T09:22:25.183Z,25.00
2022-09-07T09:25:14.601Z,24.90
2022-09-07T09:27:43.188Z,24.80
2022-09-07T09:30:14.804Z,24.70
2022-09-07T09:32:46.871Z,24.70
2022-09-07T09:35:33.569Z,24.70
2022-09-07T09:38:09.686Z,24.80
2022-09-07T09:40:38.015Z,25.00
2022-09-07T09:43:07.237Z,24.90
2022-09-07T09:48:37.352Z,25.10
2022-09-07T09:53:58.743Z,25.60
2022-09-07T09:56:37.266Z,25.80
2022-09-07T10:05:25.765Z,26.50
2022-09-07T10:07:53.825Z,26.80
2022-09-07T10:10:21.682Z,27.10
2022-09-07T10:12:54.090Z,27.40
2022-09-07T10:15:33.683Z,27.60
2022-09-07T10:18:06.307Z,27.90
2022-09-07T10:20:38.200Z,28.10
2022-09-07T10:23:20.645Z,28.30
2022-09-07T10:25:48.557Z,28.70
2022-09-07T10:28:24.522Z,28.40
2022-09-07T10:31:08.077Z,28.10
2022-09-07T10:37:05.739Z,27.40
2022-09-07T10:39:40.400Z,27.40
2022-09-07T10:42:30.929Z,27.90
2022-09-07T10:45:04.902Z,28.10
2022-09-07T10:48:06.276Z,28.20
2022-09-07T10:50:44.070Z,28.50
2022-09-07T10:54:29.108Z,29.10
2022-09-07T10:56:28.287Z,28.90
2022-09-07T11:09:19.396Z,32.70
2022-09-07T11:12:08.174Z,32.60
2022-09-07T11:14:48.967Z,32.00
2022-09-07T11:17:21.873Z,30.90
2022-09-07T11:20:12.121Z,30.20
2022-09-07T11:22:48.470Z,29.30
2022-09-07T11:25:30.597Z,28.70
2022-09-07T11:28:13.096Z,28.20
2022-09-07T11:30:46.190Z,28.30
2022-09-07T11:33:20.711Z,29.80
2022-09-07T11:35:54.985Z,30.50
2022-09-07T11:38:44.316Z,30.30
2022-09-07T11:41:21.128Z,29.80
2022-09-07T11:43:53.225Z,28.90
2022-09-07T11:46:32.624Z,28.00
2022-09-07T11:49:03.386Z,27.90
2022-09-07T11:51:41.497Z,28.20
2022-09-07T11:54:43.552Z,29.20
2022-09-07T11:57:45.512Z,29.20
2022-09-07T12:00:51.626Z,28.00
2022-09-07T12:03:40.937Z,27.40
2022-09-07T12:06:46.889Z,27.00
2022-09-07T12:09:35.972Z,26.40
2022-09-07T12:12:33.548Z,26.20
2022-09-07T12:15:22.355Z,25.80
2022-09-07T12:18:11.283Z,27.90
2022-09-07T12:20:44.452Z,30.90
2022-09-07T12:23:29.838Z,32.50
2022-09-07T12:26:35.645Z,34.70
2022-09-07T12:29:17.704Z,37.10
2022-09-07T12:32:07.285Z,35.90
2022-09-07T12:34:50.491Z,35.20
2022-09-07T12:37:27.137Z,36.20
2022-09-07T12:40:33.128Z,34.50
2022-09-07T12:43:13.267Z,33.30
2022-09-07T12:45:41.517Z,32.90
2022-09-07T12:48:17.994Z,32.40
2022-09-07T12:51:05.379Z,31.60
2022-09-07T12:54:10.458Z,30.70
2022-09-07T13:00:11.947Z,29.60
2022-09-07T13:03:49.444Z,31.30
2022-09-07T13:06:11.419Z,32.60
2022-09-07T13:08:57.835Z,33.30
2022-09-07T13:11:33.240Z,32.30
2022-09-07T13:14:13.175Z,32.60
2022-09-07T13:19:49.616Z,35.20
2022-09-07T13:22:29.550Z,35.00
2022-09-07T13:25:18.063Z,34.80
2022-09-07T13:28:18.607Z,35.60
2022-09-07T13:31:19.490Z,35.80
2022-09-07T13:33:52.454Z,34.70
2022-09-07T13:36:33.832Z,33.60
2022-09-07T13:39:05.674Z,31.10
2022-09-07T13:41:41.063Z,30.40
2022-09-07T13:44:27.509Z,29.20
2022-09-07T13:47:00.357Z,29.30
2022-09-07T13:49:53.644Z,29.00
2022-09-07T13:52:37.217Z,29.10
2022-09-07T13:55:10.470Z,29.50
2022-09-07T13:58:17.845Z,29.80
2022-09-07T14:00:55.251Z,29.60
2022-09-07T14:03:25.419Z,29.60
2022-09-07T14:06:15.950Z,29.80
2022-09-07T14:08:49.329Z,29.70
2022-09-07T14:11:21.813Z,29.30
2022-09-07T14:14:16.284Z,29.40
2022-09-07T14:17:11.498Z,29.60
2022-09-07T14:19:45.289Z,29.30
2022-09-07T14:22:16.174Z,29.50
2022-09-07T14:24:51.597Z,29.50
2022-09-07T14:27:22.887Z,29.30
2022-09-07T14:30:36.045Z,29.10
2022-09-07T14:33:31.702Z,29.40
2022-09-07T14:35:59.576Z,29.60
2022-09-07T14:41:31.943Z,29.60
2022-09-07T14:44:00.580Z,29.20
2022-09-07T14:46:35.829Z,28.80
2022-09-07T14:49:19.678Z,28.70
2022-09-07T14:51:48.719Z,28.50
2022-09-07T14:54:20.574Z,28.50
2022-09-07T14:57:27.396Z,28.50
2022-09-07T14:59:57.180Z,28.40
2022-09-07T15:02:55.583Z,28.20
2022-09-07T15:05:29.828Z,28.10
2022-09-07T15:08:02.929Z,28.20
2022-09-07T15:10:35.330Z,28.50
2022-09-07T15:13:06.145Z,28.40
2022-09-07T15:15:37.483Z,28.60
2022-09-07T15:18:39.066Z,28.20
2022-09-07T15:21:09.032Z,28.40
2022-09-07T15:27:21.273Z,28.40
2022-09-07T15:29:49.291Z,28.90
2022-09-07T15:32:18.223Z,29.40
2022-09-07T15:34:46.057Z,29.70
2022-09-07T15:40:01.854Z,31.20
2022-09-07T15:45:17.498Z,31.60
2022-09-07T15:47:50.908Z,30.50
2022-09-07T15:50:19.600Z,29.80
2022-09-07T15:52:47.311Z,29.10
2022-09-07T15:55:17.568Z,28.90
2022-09-07T15:57:51.319Z,28.70
2022-09-07T16:00:22.634Z,28.30
2022-09-07T16:03:07.128Z,28.00
2022-09-07T16:05:35.807Z,27.60
2022-09-07T16:10:55.782Z,27.10
2022-09-07T16:13:31.989Z,28.30
2022-09-07T16:16:00.575Z,28.70
2022-09-07T16:18:31.234Z,28.50
2022-09-07T16:21:13.666Z,28.10
2022-09-07T16:23:44.067Z,27.70
2022-09-07T16:26:12.226Z,27.10
2022-09-07T16:28:42.599Z,26.90
2022-09-07T16:31:14.920Z,26.50
2022-09-07T16:33:42.889Z,26.40
2022-09-07T16:36:13.224Z,26.30
2022-09-07T16:38:44.476Z,26.10
2022-09-07T16:41:20.002Z,25.90
2022-09-07T16:43:48.087Z,25.90
2022-09-07T16:46:18.409Z,25.90
2022-09-07T16:48:46.157Z,25.80
2022-09-07T16:51:16.463Z,25.70
2022-09-07T16:53:44.096Z,25.70
2022-09-07T16:56:16.869Z,25.70
2022-09-07T16:58:47.655Z,25.70
2022-09-07T17:01:18.109Z,25.70
2022-09-07T17:03:46.221Z,25.60
2022-09-07T17:06:14.419Z,25.60
2022-09-07T17:08:43.092Z,25.60
2022-09-07T17:11:13.144Z,25.50
2022-09-07T17:13:41.875Z,25.40
2022-09-07T17:16:11.614Z,25.50
2022-09-07T17:21:33.271Z,25.40
2022-09-07T17:24:04.163Z,25.20
2022-09-07T17:26:33.030Z,25.10
2022-09-07T17:29:01.370Z,25.10
2022-09-07T17:34:22.376Z,25.00
2022-09-07T17:37:01.166Z,24.80
2022-09-07T17:39:30.020Z,24.70
2022-09-07T17:41:57.733Z,24.60
2022-09-07T17:44:25.456Z,24.50
2022-09-07T17:46:53.127Z,24.40
2022-09-07T17:49:21.009Z,24.40
2022-09-07T17:51:48.657Z,24.30
2022-09-07T17:54:17.610Z,24.40
2022-09-07T17:56:46.212Z,24.30
2022-09-07T18:02:02.796Z,24.30
2022-09-07T18:04:30.759Z,24.20
2022-09-07T18:06:58.733Z,24.20
2022-09-07T18:09:26.396Z,24.10
2022-09-07T18:11:54.069Z,24.00
2022-09-07T18:14:21.887Z,23.90
2022-09-07T18:16:50.189Z,23.70
2022-09-07T18:19:18.868Z,23.60
2022-09-07T18:21:48.097Z,23.50
2022-09-07T18:24:21.630Z,23.30
2022-09-07T18:26:52.420Z,23.20
2022-09-07T18:29:33.473Z,23.20
2022-09-07T18:32:09.495Z,23.00
2022-09-07T18:34:40.706Z,23.00
2022-09-07T18:37:12.038Z,22.90
2022-09-07T18:39:40.862Z,22.90
2022-09-07T18:42:09.785Z,22.80
2022-09-07T18:47:29.501Z,22.60
2022-09-07T18:49:57.931Z,22.50
2022-09-07T18:55:14.153Z,22.40
2022-09-07T18:57:42.236Z,22.30
2022-09-07T19:00:12.021Z,22.20
2022-09-07T19:02:39.710Z,22.20
2022-09-07T19:07:55.377Z,22.20
2022-09-07T19:10:23.069Z,22.20
2022-09-07T19:12:50.867Z,22.20
2022-09-07T19:15:20.429Z,22.10
2022-09-07T19:17:48.116Z,22.10
2022-09-07T19:20:15.900Z,22.20
2022-09-07T19:22:43.916Z,22.30
2022-09-07T19:25:11.527Z,22.30
2022-09-07T19:27:39.270Z,22.30
2022-09-07T19:30:07.459Z,22.30
2022-09-07T19:32:35.065Z,22.20
2022-09-07T19:35:02.776Z,22.10
2022-09-07T19:37:32.637Z,22.00
2022-09-07T19:40:01.265Z,22.00
2022-09-07T19:42:29.574Z,22.00
2022-09-07T19:44:57.591Z,21.90
2022-09-07T19:47:25.335Z,21.80
2022-09-07T19:49:53.227Z,21.80
2022-09-07T19:52:20.832Z,21.60
2022-09-07T19:54:48.444Z,21.60
2022-09-07T19:57:16.115Z,21.50
2022-09-07T19:59:45.651Z,21.50
2022-09-07T20:02:13.469Z,21.40
2022-09-07T20:04:41.104Z,21.30
2022-09-07T20:07:11.764Z,21.30
2022-09-07T20:09:42.928Z,21.30
2022-09-07T20:12:10.583Z,21.40
2022-09-07T20:14:38.229Z,21.30
2022-09-07T20:17:05.910Z,21.20
2022-09-07T20:19:33.570Z,21.20
2022-09-07T20:22:01.223Z,21.20
2022-09-07T20:24:28.822Z,21.10
2022-09-07T20:26:56.381Z,21.00
2022-09-07T20:29:27.760Z,21.00
2022-09-07T20:31:58.510Z,21.00
2022-09-07T20:34:27.871Z,21.00
2022-09-07T20:36:56.766Z,20.90
2022-09-07T20:39:24.411Z,20.80
2022-09-07T20:41:52.073Z,20.60
2022-09-07T20:44:19.836Z,20.50
2022-09-07T20:46:52.994Z,20.40
2022-09-07T20:49:22.108Z,20.30
2022-09-07T20:51:49.770Z,20.10
2022-09-07T20:54:17.736Z,20.10
2022-09-07T20:56:45.315Z,20.10
2022-09-07T20:59:15.052Z,20.10
2022-09-07T21:01:42.804Z,20.10
2022-09-07T21:04:10.404Z,20.00
2022-09-07T21:06:38.232Z,20.00
2022-09-07T21:09:05.911Z,20.00
2022-09-07T21:11:35.367Z,19.90
2022-09-07T21:14:11.154Z,19.90
2022-09-07T21:16:39.300Z,19.90
2022-09-07T21:19:09.042Z,19.90
2022-09-07T21:21:39.620Z,19.90
2022-09-07T21:24:20.835Z,19.80
2022-09-07T21:26:50.044Z,19.80
2022-09-07T21:29:26.557Z,19.80
2022-09-07T21:31:54.913Z,19.80
2022-09-07T21:34:23.456Z,19.70
2022-09-07T21:36:51.623Z,19.70
2022-09-07T21:39:20.701Z,19.70
2022-09-07T21:41:48.372Z,19.70
2022-09-07T21:44:16.708Z,19.70
2022-09-07T21:46:44.778Z,19.80
2022-09-07T21:49:12.515Z,19.70
2022-09-07T21:51:46.227Z,19.70
2022-09-07T21:54:21.395Z,19.50
2022-09-07T21:56:49.254Z,19.40
2022-09-07T21:59:16.893Z,19.40
2022-09-07T22:01:44.500Z,19.40
2022-09-07T22:04:12.119Z,19.40
2022-09-07T22:06:43.852Z,19.30
2022-09-07T22:09:11.421Z,19.20
2022-09-07T22:11:42.010Z,19.20
2022-09-07T22:14:14.330Z,19.20
2022-09-07T22:16:41.981Z,19.20
2022-09-07T22:19:09.700Z,19.10
2022-09-07T22:21:37.492Z,19.10
2022-09-07T22:24:06.123Z,19.20
2022-09-07T22:26:39.717Z,19.20
2022-09-07T22:29:09.032Z,19.20
2022-09-07T22:31:37.964Z,19.20
2022-09-07T22:34:10.506Z,19.20
2022-09-07T22:36:45.277Z,19.20
2022-09-07T22:39:17.597Z,19.20
2022-09-07T22:41:47.163Z,19.20
2022-09-07T22:44:19.763Z,19.20
2022-09-07T22:46:48.230Z,19.20
2022-09-07T22:49:16.919Z,19.10
2022-09-07T22:51:45.255Z,19.10
2022-09-07T22:54:13.414Z,19.10
2022-09-07T22:56:41.390Z,19.10
2022-09-07T22:59:10.364Z,19.10
2022-09-07T23:01:38.426Z,19.20
2022-09-07T23:04:07.320Z,19.20
2022-09-07T23:09:21.148Z,19.20
2022-09-07T23:11:49.427Z,19.20
2022-09-07T23:14:23.115Z,19.20
2022-09-07T23:16:51.120Z,19.10
2022-09-07T23:19:20.719Z,19.10
2022-09-07T23:21:49.673Z,19.10
2022-09-07T23:24:19.227Z,19.10
2022-09-07T23:26:47.470Z,19.10
2022-09-07T23:29:16.351Z,19.10
2022-09-07T23:31:45.940Z,19.10
2022-09-07T23:34:13.924Z,19.00
2022-09-07T23:36:41.988Z,18.90
2022-09-07T23:39:12.507Z,18.90
2022-09-07T23:41:40.396Z,18.90
2022-09-07T23:44:08.318Z,18.90
2022-09-07T23:46:36.144Z,18.90
2022-09-07T23:49:04.386Z,18.90
2022-09-07T23:51:35.662Z,18.90
2022-09-07T23:54:04.327Z,19.00
2022-09-07T23:56:47.867Z,19.00
2022-09-07T23:59:20.341Z,19.10
